sensor_id;sensor_type;location;lat;lon;timestamp;pressure;altitude;pressure_sealevel;temperature;humidity
63306;BME280;50735;52.060;1.248;2023-04-09T00:01:09;102317.42;;;7.80;53.12
63306;BME280;50735;52.060;1.248;2023-04-09T00:03:41;102318.97;;;7.85;53.25
63306;BME280;50735;52.060;1.248;2023-04-09T00:06:13;102317.96;;;7.64;53.19
63306;BME280;50735;52.060;1.248;2023-04-09T00:08:45;102314.81;;;7.86;53.63
63306;BME280;50735;52.060;1.248;2023-04-09T00:11:17;102311.05;;;7.52;54.28
63306;BME280;50735;52.060;1.248;2023-04-09T00:13:49;102311.83;;;7.69;53.92
63306;BME280;50735;52.060;1.248;2023-04-09T00:16:21;102310.52;;;7.77;53.78
63306;BME280;50735;52.060;1.248;2023-04-09T00:18:52;102311.72;;;7.81;53.59
63306;BME280;50735;52.060;1.248;2023-04-09T00:21:24;102315.12;;;7.88;53.71
63306;BME280;50735;52.060;1.248;2023-04-09T00:23:56;102316.01;;;7.62;53.78
63306;BME280;50735;52.060;1.248;2023-04-09T00:26:30;102316.03;;;7.60;53.62
63306;BME280;50735;52.060;1.248;2023-04-09T00:29:01;102314.14;;;7.53;54.29
63306;BME280;50735;52.060;1.248;2023-04-09T00:31:33;102314.79;;;7.50;53.70
63306;BME280;50735;52.060;1.248;2023-04-09T00:34:05;102312.65;;;7.93;54.19
63306;BME280;50735;52.060;1.248;2023-04-09T00:36:36;102309.95;;;7.73;53.83
63306;BME280;50735;52.060;1.248;2023-04-09T00:39:08;102307.07;;;7.52;54.16
63306;BME280;50735;52.060;1.248;2023-04-09T00:41:39;102302.76;;;7.71;54.16
63306;BME280;50735;52.060;1.248;2023-04-09T00:44:11;102303.24;;;7.68;54.23
63306;BME280;50735;52.060;1.248;2023-04-09T00:46:43;102298.73;;;7.64;54.71
63306;BME280;50735;52.060;1.248;2023-04-09T00:49:15;102296.88;;;7.54;54.87
63306;BME280;50735;52.060;1.248;2023-04-09T00:51:47;102298.45;;;7.75;54.34
63306;BME280;50735;52.060;1.248;2023-04-09T00:54:19;102295.41;;;7.61;54.67
63306;BME280;50735;52.060;1.248;2023-04-09T00:56:52;102294.82;;;7.62;54.79
63306;BME280;50735;52.060;1.248;2023-04-09T00:59:24;102293.37;;;7.57;54.57
63306;BME280;50735;52.060;1.248;2023-04-09T01:01:56;102292.55;;;7.64;54.70
63306;BME280;50735;52.060;1.248;2023-04-09T01:04:28;102287.83;;;7.60;55.08
63306;BME280;50735;52.060;1.248;2023-04-09T01:07:06;102286.63;;;7.40;54.43
63306;BME280;50735;52.060;1.248;2023-04-09T01:09:46;102285.21;;;7.65;55.05
63306;BME280;50735;52.060;1.248;2023-04-09T01:12:27;102282.55;;;7.38;55.08
63306;BME280;50735;52.060;1.248;2023-04-09T01:15:07;102278.04;;;7.78;54.87
63306;BME280;50735;52.060;1.248;2023-04-09T01:17:45;102271.04;;;7.58;56.02
63306;BME280;50735;52.060;1.248;2023-04-09T01:20:21;102268.77;;;7.15;55.61
63306;BME280;50735;52.060;1.248;2023-04-09T01:23:06;102266.17;;;7.52;55.42
63306;BME280;50735;52.060;1.248;2023-04-09T01:25:52;102261.53;;;7.38;56.83
63306;BME280;50735;52.060;1.248;2023-04-09T01:28:32;102262.03;;;7.00;57.30
63306;BME280;50735;52.060;1.248;2023-04-09T01:31:09;102256.44;;;6.56;58.06
63306;BME280;50735;52.060;1.248;2023-04-09T01:33:43;102254.96;;;6.83;58.26
63306;BME280;50735;52.060;1.248;2023-04-09T01:36:15;102260.63;;;7.14;57.29
63306;BME280;50735;52.060;1.248;2023-04-09T01:38:47;102262.33;;;7.36;57.10
63306;BME280;50735;52.060;1.248;2023-04-09T01:41:22;102259.98;;;7.29;57.55
63306;BME280;50735;52.060;1.248;2023-04-09T01:43:54;102263.39;;;7.16;57.77
63306;BME280;50735;52.060;1.248;2023-04-09T01:46:28;102263.01;;;6.98;58.03
63306;BME280;50735;52.060;1.248;2023-04-09T01:49:00;102265.44;;;7.24;57.79
63306;BME280;50735;52.060;1.248;2023-04-09T01:51:33;102263.56;;;6.71;58.01
63306;BME280;50735;52.060;1.248;2023-04-09T01:54:05;102262.73;;;6.58;58.66
63306;BME280;50735;52.060;1.248;2023-04-09T01:56:41;102262.45;;;6.97;58.42
63306;BME280;50735;52.060;1.248;2023-04-09T01:59:14;102264.26;;;7.05;58.20
63306;BME280;50735;52.060;1.248;2023-04-09T02:01:51;102259.76;;;6.61;59.84
63306;BME280;50735;52.060;1.248;2023-04-09T02:04:29;102256.43;;;6.74;59.40
63306;BME280;50735;52.060;1.248;2023-04-09T02:07:05;102255.53;;;6.66;59.65
63306;BME280;50735;52.060;1.248;2023-04-09T02:09:40;102256.12;;;6.46;59.86
63306;BME280;50735;52.060;1.248;2023-04-09T02:12:17;102251.07;;;6.63;59.15
63306;BME280;50735;52.060;1.248;2023-04-09T02:14:51;102252.25;;;6.75;59.06
63306;BME280;50735;52.060;1.248;2023-04-09T02:17:23;102249.99;;;6.65;59.77
63306;BME280;50735;52.060;1.248;2023-04-09T02:19:55;102251.75;;;6.95;58.90
63306;BME280;50735;52.060;1.248;2023-04-09T02:22:27;102250.22;;;6.69;59.28
63306;BME280;50735;52.060;1.248;2023-04-09T02:24:59;102244.14;;;6.51;60.03
63306;BME280;50735;52.060;1.248;2023-04-09T02:27:32;102246.83;;;6.65;59.99
63306;BME280;50735;52.060;1.248;2023-04-09T02:30:05;102245.32;;;6.52;59.14
63306;BME280;50735;52.060;1.248;2023-04-09T02:32:36;102241.63;;;6.90;58.69
63306;BME280;50735;52.060;1.248;2023-04-09T02:35:08;102237.94;;;7.26;58.00
63306;BME280;50735;52.060;1.248;2023-04-09T02:37:39;102233.95;;;7.10;58.82
63306;BME280;50735;52.060;1.248;2023-04-09T02:40:11;102229.43;;;7.12;58.72
63306;BME280;50735;52.060;1.248;2023-04-09T02:42:43;102225.70;;;7.13;58.46
63306;BME280;50735;52.060;1.248;2023-04-09T02:45:15;102219.00;;;6.68;58.72
63306;BME280;50735;52.060;1.248;2023-04-09T02:47:48;102215.34;;;6.80;59.07
63306;BME280;50735;52.060;1.248;2023-04-09T02:50:20;102216.96;;;7.26;58.12
63306;BME280;50735;52.060;1.248;2023-04-09T02:52:52;102213.65;;;7.48;57.49
63306;BME280;50735;52.060;1.248;2023-04-09T02:55:24;102207.35;;;7.33;57.69
63306;BME280;50735;52.060;1.248;2023-04-09T02:57:56;102204.17;;;7.14;57.92
63306;BME280;50735;52.060;1.248;2023-04-09T03:00:27;102206.67;;;6.80;58.28
63306;BME280;50735;52.060;1.248;2023-04-09T03:03:00;102202.97;;;7.30;58.11
63306;BME280;50735;52.060;1.248;2023-04-09T03:05:31;102196.83;;;7.01;58.45
63306;BME280;50735;52.060;1.248;2023-04-09T03:08:03;102201.00;;;7.24;58.21
63306;BME280;50735;52.060;1.248;2023-04-09T03:10:35;102196.05;;;7.38;57.94
63306;BME280;50735;52.060;1.248;2023-04-09T03:13:07;102195.51;;;7.38;57.98
63306;BME280;50735;52.060;1.248;2023-04-09T03:15:40;102196.76;;;7.52;57.20
63306;BME280;50735;52.060;1.248;2023-04-09T03:18:11;102192.41;;;7.46;56.88
63306;BME280;50735;52.060;1.248;2023-04-09T03:20:43;102190.71;;;7.68;57.10
63306;BME280;50735;52.060;1.248;2023-04-09T03:23:15;102188.34;;;7.50;56.75
63306;BME280;50735;52.060;1.248;2023-04-09T03:25:48;102187.66;;;7.59;56.49
63306;BME280;50735;52.060;1.248;2023-04-09T03:28:19;102186.96;;;7.60;56.51
63306;BME280;50735;52.060;1.248;2023-04-09T03:30:51;102188.17;;;7.64;56.27
63306;BME280;50735;52.060;1.248;2023-04-09T03:33:23;102184.65;;;7.87;56.17
63306;BME280;50735;52.060;1.248;2023-04-09T03:35:55;102184.90;;;7.48;56.54
63306;BME280;50735;52.060;1.248;2023-04-09T03:38:27;102182.87;;;7.44;56.65
63306;BME280;50735;52.060;1.248;2023-04-09T03:40:59;102181.61;;;7.43;56.88
63306;BME280;50735;52.060;1.248;2023-04-09T03:43:31;102177.53;;;7.70;57.04
63306;BME280;50735;52.060;1.248;2023-04-09T03:46:10;102179.96;;;7.44;57.55
63306;BME280;50735;52.060;1.248;2023-04-09T03:48:42;102181.08;;;6.92;57.89
63306;BME280;50735;52.060;1.248;2023-04-09T03:51:15;102179.26;;;6.99;57.67
63306;BME280;50735;52.060;1.248;2023-04-09T03:53:47;102173.78;;;7.36;57.12
63306;BME280;50735;52.060;1.248;2023-04-09T03:56:19;102167.28;;;7.29;56.52
63306;BME280;50735;52.060;1.248;2023-04-09T03:58:51;102163.38;;;6.99;58.65
63306;BME280;50735;52.060;1.248;2023-04-09T04:01:23;102156.55;;;6.75;59.08
63306;BME280;50735;52.060;1.248;2023-04-09T04:03:54;102156.55;;;6.55;59.50
63306;BME280;50735;52.060;1.248;2023-04-09T04:06:26;102159.00;;;6.69;59.07
63306;BME280;50735;52.060;1.248;2023-04-09T04:08:58;102158.58;;;6.89;58.60
63306;BME280;50735;52.060;1.248;2023-04-09T04:11:30;102158.88;;;6.96;58.32
63306;BME280;50735;52.060;1.248;2023-04-09T04:14:02;102161.99;;;7.08;58.76
63306;BME280;50735;52.060;1.248;2023-04-09T04:16:34;102157.99;;;6.82;58.67
63306;BME280;50735;52.060;1.248;2023-04-09T04:19:06;102157.08;;;7.04;58.68
63306;BME280;50735;52.060;1.248;2023-04-09T04:21:38;102155.63;;;6.94;57.98
63306;BME280;50735;52.060;1.248;2023-04-09T04:24:09;102154.14;;;6.95;57.70
63306;BME280;50735;52.060;1.248;2023-04-09T04:26:41;102153.93;;;7.24;57.30
63306;BME280;50735;52.060;1.248;2023-04-09T04:29:13;102157.91;;;7.13;57.21
63306;BME280;50735;52.060;1.248;2023-04-09T04:31:45;102159.05;;;7.35;57.13
63306;BME280;50735;52.060;1.248;2023-04-09T04:34:17;102157.91;;;7.39;56.82
63306;BME280;50735;52.060;1.248;2023-04-09T04:36:49;102155.94;;;7.28;57.49
63306;BME280;50735;52.060;1.248;2023-04-09T04:39:21;102152.38;;;6.94;58.41
63306;BME280;50735;52.060;1.248;2023-04-09T04:41:53;102151.62;;;7.05;57.92
63306;BME280;50735;52.060;1.248;2023-04-09T04:44:25;102149.53;;;7.14;57.77
63306;BME280;50735;52.060;1.248;2023-04-09T04:46:57;102150.44;;;6.88;57.71
63306;BME280;50735;52.060;1.248;2023-04-09T04:49:29;102154.73;;;6.95;57.92
63306;BME280;50735;52.060;1.248;2023-04-09T04:52:01;102158.09;;;6.75;57.69
63306;BME280;50735;52.060;1.248;2023-04-09T04:54:33;102157.54;;;7.10;57.00
63306;BME280;50735;52.060;1.248;2023-04-09T04:57:05;102161.57;;;7.21;56.57
63306;BME280;50735;52.060;1.248;2023-04-09T04:59:37;102161.46;;;7.27;56.37
63306;BME280;50735;52.060;1.248;2023-04-09T05:02:09;102161.00;;;7.05;56.71
63306;BME280;50735;52.060;1.248;2023-04-09T05:04:40;102158.50;;;7.07;56.48
63306;BME280;50735;52.060;1.248;2023-04-09T05:07:12;102161.68;;;7.10;56.17
63306;BME280;50735;52.060;1.248;2023-04-09T05:09:44;102159.01;;;7.11;56.09
63306;BME280;50735;52.060;1.248;2023-04-09T05:12:15;102157.71;;;6.79;57.11
63306;BME280;50735;52.060;1.248;2023-04-09T05:14:47;102151.79;;;6.58;57.70
63306;BME280;50735;52.060;1.248;2023-04-09T05:17:19;102153.16;;;6.45;57.88
63306;BME280;50735;52.060;1.248;2023-04-09T05:19:52;102149.77;;;6.67;57.82
63306;BME280;50735;52.060;1.248;2023-04-09T05:22:24;102150.46;;;6.55;57.36
63306;BME280;50735;52.060;1.248;2023-04-09T05:24:56;102149.30;;;6.68;56.87
63306;BME280;50735;52.060;1.248;2023-04-09T05:27:28;102143.97;;;6.77;56.52
63306;BME280;50735;52.060;1.248;2023-04-09T05:30:00;102143.37;;;7.00;56.23
63306;BME280;50735;52.060;1.248;2023-04-09T05:32:32;102147.87;;;6.83;56.07
63306;BME280;50735;52.060;1.248;2023-04-09T05:35:04;102149.72;;;6.85;56.06
63306;BME280;50735;52.060;1.248;2023-04-09T05:37:36;102148.97;;;7.06;55.97
63306;BME280;50735;52.060;1.248;2023-04-09T05:40:09;102146.94;;;6.91;55.85
63306;BME280;50735;52.060;1.248;2023-04-09T05:42:42;102140.69;;;6.88;55.73
63306;BME280;50735;52.060;1.248;2023-04-09T05:45:14;102138.00;;;6.71;56.44
63306;BME280;50735;52.060;1.248;2023-04-09T05:47:46;102137.12;;;6.76;56.11
63306;BME280;50735;52.060;1.248;2023-04-09T05:50:17;102139.16;;;6.81;55.96
63306;BME280;50735;52.060;1.248;2023-04-09T05:52:50;102138.11;;;6.87;55.79
63306;BME280;50735;52.060;1.248;2023-04-09T05:55:22;102140.13;;;6.89;55.71
63306;BME280;50735;52.060;1.248;2023-04-09T05:57:53;102137.94;;;6.92;55.65
63306;BME280;50735;52.060;1.248;2023-04-09T06:00:25;102134.67;;;6.95;55.53
63306;BME280;50735;52.060;1.248;2023-04-09T06:02:57;102134.61;;;6.99;55.41
63306;BME280;50735;52.060;1.248;2023-04-09T06:05:29;102134.19;;;7.00;55.45
63306;BME280;50735;52.060;1.248;2023-04-09T06:08:01;102140.51;;;7.00;55.60
63306;BME280;50735;52.060;1.248;2023-04-09T06:10:33;102143.14;;;7.04;55.66
63306;BME280;50735;52.060;1.248;2023-04-09T06:13:05;102145.98;;;7.09;55.61
63306;BME280;50735;52.060;1.248;2023-04-09T06:15:37;102148.24;;;7.09;55.68
63306;BME280;50735;52.060;1.248;2023-04-09T06:18:09;102148.47;;;7.12;55.45
63306;BME280;50735;52.060;1.248;2023-04-09T06:20:41;102151.10;;;7.33;55.79
63306;BME280;50735;52.060;1.248;2023-04-09T06:23:13;102150.75;;;7.25;55.80
63306;BME280;50735;52.060;1.248;2023-04-09T06:25:45;102148.90;;;7.33;55.89
63306;BME280;50735;52.060;1.248;2023-04-09T06:28:17;102148.73;;;7.32;56.29
63306;BME280;50735;52.060;1.248;2023-04-09T06:30:50;102151.01;;;7.36;56.06
63306;BME280;50735;52.060;1.248;2023-04-09T06:33:21;102148.01;;;7.43;56.13
63306;BME280;50735;52.060;1.248;2023-04-09T06:35:53;102148.67;;;7.04;57.08
63306;BME280;50735;52.060;1.248;2023-04-09T06:38:25;102145.61;;;7.16;57.06
63306;BME280;50735;52.060;1.248;2023-04-09T06:40:57;102145.37;;;7.05;56.59
63306;BME280;50735;52.060;1.248;2023-04-09T06:43:29;102149.55;;;7.13;56.53
63306;BME280;50735;52.060;1.248;2023-04-09T06:46:01;102146.04;;;7.56;56.34
63306;BME280;50735;52.060;1.248;2023-04-09T06:48:33;102146.49;;;7.82;56.49
63306;BME280;50735;52.060;1.248;2023-04-09T06:51:05;102148.28;;;7.54;56.75
63306;BME280;50735;52.060;1.248;2023-04-09T06:53:38;102146.07;;;7.51;56.15
63306;BME280;50735;52.060;1.248;2023-04-09T06:56:09;102149.97;;;7.00;57.83
63306;BME280;50735;52.060;1.248;2023-04-09T06:58:41;102145.51;;;7.23;57.07
63306;BME280;50735;52.060;1.248;2023-04-09T07:01:13;102145.02;;;7.74;56.96
63306;BME280;50735;52.060;1.248;2023-04-09T07:03:45;102142.48;;;7.57;57.47
63306;BME280;50735;52.060;1.248;2023-04-09T07:06:17;102143.91;;;7.35;57.55
63306;BME280;50735;52.060;1.248;2023-04-09T07:08:49;102141.30;;;7.63;56.90
63306;BME280;50735;52.060;1.248;2023-04-09T07:11:21;102140.09;;;7.79;56.87
63306;BME280;50735;52.060;1.248;2023-04-09T07:13:53;102140.93;;;7.84;56.71
63306;BME280;50735;52.060;1.248;2023-04-09T07:16:25;102139.56;;;7.62;56.81
63306;BME280;50735;52.060;1.248;2023-04-09T07:18:57;102143.08;;;7.69;56.67
63306;BME280;50735;52.060;1.248;2023-04-09T07:21:29;102140.28;;;8.16;56.20
63306;BME280;50735;52.060;1.248;2023-04-09T07:24:01;102140.16;;;8.29;55.74
63306;BME280;50735;52.060;1.248;2023-04-09T07:26:33;102142.95;;;8.60;55.18
63306;BME280;50735;52.060;1.248;2023-04-09T07:29:05;102138.01;;;8.64;54.65
63306;BME280;50735;52.060;1.248;2023-04-09T07:31:37;102138.73;;;8.94;53.42
63306;BME280;50735;52.060;1.248;2023-04-09T07:34:09;102142.31;;;8.50;55.12
63306;BME280;50735;52.060;1.248;2023-04-09T07:36:41;102143.46;;;8.02;56.52
63306;BME280;50735;52.060;1.248;2023-04-09T07:39:13;102143.57;;;7.97;56.78
63306;BME280;50735;52.060;1.248;2023-04-09T07:41:45;102145.23;;;8.49;55.32
63306;BME280;50735;52.060;1.248;2023-04-09T07:44:17;102146.14;;;8.71;55.01
63306;BME280;50735;52.060;1.248;2023-04-09T07:46:49;102141.13;;;8.56;54.90
63306;BME280;50735;52.060;1.248;2023-04-09T07:49:21;102144.09;;;8.52;55.64
63306;BME280;50735;52.060;1.248;2023-04-09T07:51:53;102138.88;;;8.49;54.32
63306;BME280;50735;52.060;1.248;2023-04-09T07:54:25;102138.63;;;8.93;55.20
63306;BME280;50735;52.060;1.248;2023-04-09T07:56:57;102140.12;;;9.20;54.32
63306;BME280;50735;52.060;1.248;2023-04-09T07:59:30;102138.28;;;8.92;54.67
63306;BME280;50735;52.060;1.248;2023-04-09T08:02:02;102138.16;;;9.14;53.50
63306;BME280;50735;52.060;1.248;2023-04-09T08:04:33;102135.82;;;9.18;53.87
63306;BME280;50735;52.060;1.248;2023-04-09T08:07:05;102134.35;;;9.33;53.84
63306;BME280;50735;52.060;1.248;2023-04-09T08:09:36;102133.22;;;9.25;54.38
63306;BME280;50735;52.060;1.248;2023-04-09T08:12:08;102130.91;;;9.36;54.29
63306;BME280;50735;52.060;1.248;2023-04-09T08:14:40;102130.47;;;8.95;54.02
63306;BME280;50735;52.060;1.248;2023-04-09T08:17:11;102122.92;;;9.43;52.29
63306;BME280;50735;52.060;1.248;2023-04-09T08:19:43;102116.25;;;9.44;52.09
63306;BME280;50735;52.060;1.248;2023-04-09T08:22:15;102113.12;;;9.78;51.81
63306;BME280;50735;52.060;1.248;2023-04-09T08:24:50;102110.72;;;9.67;51.90
63306;BME280;50735;52.060;1.248;2023-04-09T08:27:22;102110.99;;;9.74;52.39
63306;BME280;50735;52.060;1.248;2023-04-09T08:29:55;102109.44;;;9.47;53.09
63306;BME280;50735;52.060;1.248;2023-04-09T08:32:27;102109.18;;;9.71;52.34
63306;BME280;50735;52.060;1.248;2023-04-09T08:34:59;102103.65;;;9.90;52.00
63306;BME280;50735;52.060;1.248;2023-04-09T08:37:30;102100.10;;;10.12;50.78
63306;BME280;50735;52.060;1.248;2023-04-09T08:40:02;102097.92;;;11.07;49.93
63306;BME280;50735;52.060;1.248;2023-04-09T08:42:35;102091.54;;;11.05;48.79
63306;BME280;50735;52.060;1.248;2023-04-09T08:45:08;102090.95;;;10.64;49.71
63306;BME280;50735;52.060;1.248;2023-04-09T08:47:40;102089.40;;;10.62;49.96
63306;BME280;50735;52.060;1.248;2023-04-09T08:50:13;102086.98;;;10.53;49.78
63306;BME280;50735;52.060;1.248;2023-04-09T08:52:47;102082.89;;;11.16;48.37
63306;BME280;50735;52.060;1.248;2023-04-09T08:55:20;102081.10;;;10.91;48.20
63306;BME280;50735;52.060;1.248;2023-04-09T08:57:53;102081.91;;;11.24;47.49
63306;BME280;50735;52.060;1.248;2023-04-09T09:00:25;102081.40;;;11.65;46.77
63306;BME280;50735;52.060;1.248;2023-04-09T09:03:02;102085.48;;;12.11;45.36
63306;BME280;50735;52.060;1.248;2023-04-09T09:05:36;102084.63;;;12.59;45.57
63306;BME280;50735;52.060;1.248;2023-04-09T09:08:10;102082.48;;;12.62;44.94
63306;BME280;50735;52.060;1.248;2023-04-09T09:10:44;102084.68;;;11.84;44.64
63306;BME280;50735;52.060;1.248;2023-04-09T09:13:17;102079.22;;;11.46;45.59
63306;BME280;50735;52.060;1.248;2023-04-09T09:15:50;102082.70;;;11.29;46.26
63306;BME280;50735;52.060;1.248;2023-04-09T09:18:37;102082.62;;;11.14;47.10
63306;BME280;50735;52.060;1.248;2023-04-09T09:21:10;102083.09;;;11.67;46.29
63306;BME280;50735;52.060;1.248;2023-04-09T09:23:42;102085.67;;;11.57;46.74
63306;BME280;50735;52.060;1.248;2023-04-09T09:26:15;102087.77;;;11.62;46.01
63306;BME280;50735;52.060;1.248;2023-04-09T09:28:48;102088.17;;;11.33;46.15
63306;BME280;50735;52.060;1.248;2023-04-09T09:31:21;102086.04;;;12.49;46.09
63306;BME280;50735;52.060;1.248;2023-04-09T09:33:53;102088.71;;;12.43;43.93
63306;BME280;50735;52.060;1.248;2023-04-09T09:36:30;102090.10;;;12.78;43.54
63306;BME280;50735;52.060;1.248;2023-04-09T09:39:03;102093.15;;;13.29;43.42
63306;BME280;50735;52.060;1.248;2023-04-09T09:41:35;102095.15;;;13.35;43.65
63306;BME280;50735;52.060;1.248;2023-04-09T09:44:08;102091.51;;;14.23;42.01
63306;BME280;50735;52.060;1.248;2023-04-09T09:46:40;102091.29;;;14.12;40.78
63306;BME280;50735;52.060;1.248;2023-04-09T09:49:12;102090.14;;;14.57;39.68
63306;BME280;50735;52.060;1.248;2023-04-09T09:51:44;102083.73;;;14.56;39.66
63306;BME280;50735;52.060;1.248;2023-04-09T09:54:21;102081.80;;;15.09;39.43
63306;BME280;50735;52.060;1.248;2023-04-09T09:56:57;102080.24;;;15.32;38.36
63306;BME280;50735;52.060;1.248;2023-04-09T09:59:37;102084.88;;;15.55;37.98
63306;BME280;50735;52.060;1.248;2023-04-09T10:02:17;102086.57;;;15.28;38.61
63306;BME280;50735;52.060;1.248;2023-04-09T10:04:50;102081.52;;;15.66;38.92
63306;BME280;50735;52.060;1.248;2023-04-09T10:07:23;102085.57;;;14.90;38.46
63306;BME280;50735;52.060;1.248;2023-04-09T10:09:55;102079.77;;;15.60;37.99
63306;BME280;50735;52.060;1.248;2023-04-09T10:12:28;102075.39;;;15.92;37.08
63306;BME280;50735;52.060;1.248;2023-04-09T10:15:00;102062.73;;;16.76;36.92
63306;BME280;50735;52.060;1.248;2023-04-09T10:17:33;102064.31;;;16.74;35.30
63306;BME280;50735;52.060;1.248;2023-04-09T10:20:10;102065.61;;;17.07;36.30
63306;BME280;50735;52.060;1.248;2023-04-09T10:22:47;102069.26;;;15.96;36.13
63306;BME280;50735;52.060;1.248;2023-04-09T10:25:21;102072.59;;;16.29;36.52
63306;BME280;50735;52.060;1.248;2023-04-09T10:27:58;102067.83;;;17.07;35.87
63306;BME280;50735;52.060;1.248;2023-04-09T10:30:31;102059.41;;;16.57;35.63
63306;BME280;50735;52.060;1.248;2023-04-09T10:33:12;102064.18;;;16.73;36.07
63306;BME280;50735;52.060;1.248;2023-04-09T10:35:46;102056.33;;;16.53;36.49
63306;BME280;50735;52.060;1.248;2023-04-09T10:38:32;102056.47;;;16.69;35.82
63306;BME280;50735;52.060;1.248;2023-04-09T10:41:07;102053.41;;;15.68;37.36
63306;BME280;50735;52.060;1.248;2023-04-09T10:43:40;102055.97;;;15.98;36.61
63306;BME280;50735;52.060;1.248;2023-04-09T10:46:29;102052.33;;;17.21;36.00
63306;BME280;50735;52.060;1.248;2023-04-09T10:49:10;102045.42;;;17.82;35.00
63306;BME280;50735;52.060;1.248;2023-04-09T10:51:48;102050.02;;;18.43;34.21
63306;BME280;50735;52.060;1.248;2023-04-09T10:54:37;102051.76;;;17.97;33.32
63306;BME280;50735;52.060;1.248;2023-04-09T10:57:11;102037.61;;;17.58;34.36
63306;BME280;50735;52.060;1.248;2023-04-09T10:59:44;102025.94;;;17.34;34.89
63306;BME280;50735;52.060;1.248;2023-04-09T11:02:40;102027.03;;;17.17;35.31
63306;BME280;50735;52.060;1.248;2023-04-09T11:05:20;102038.98;;;17.12;34.93
63306;BME280;50735;52.060;1.248;2023-04-09T11:08:04;102035.12;;;17.32;35.08
63306;BME280;50735;52.060;1.248;2023-04-09T11:10:39;102033.93;;;17.37;34.55
63306;BME280;50735;52.060;1.248;2023-04-09T11:13:12;102033.64;;;17.39;34.93
63306;BME280;50735;52.060;1.248;2023-04-09T11:15:44;102032.94;;;17.36;35.22
63306;BME280;50735;52.060;1.248;2023-04-09T11:18:19;102027.30;;;18.18;35.12
63306;BME280;50735;52.060;1.248;2023-04-09T11:20:54;102024.72;;;18.62;34.44
63306;BME280;50735;52.060;1.248;2023-04-09T11:23:27;102022.12;;;18.86;32.95
63306;BME280;50735;52.060;1.248;2023-04-09T11:25:58;102025.06;;;18.81;32.67
63306;BME280;50735;52.060;1.248;2023-04-09T11:28:30;102033.01;;;19.51;32.66
63306;BME280;50735;52.060;1.248;2023-04-09T11:31:04;102039.56;;;19.29;32.26
63306;BME280;50735;52.060;1.248;2023-04-09T11:33:36;102035.28;;;18.74;33.26
63306;BME280;50735;52.060;1.248;2023-04-09T11:36:08;102016.06;;;18.77;33.06
63306;BME280;50735;52.060;1.248;2023-04-09T11:38:40;102002.94;;;18.80;31.88
63306;BME280;50735;52.060;1.248;2023-04-09T11:41:11;101987.78;;;18.73;32.04
63306;BME280;50735;52.060;1.248;2023-04-09T11:43:44;101982.16;;;18.52;32.62
63306;BME280;50735;52.060;1.248;2023-04-09T11:46:15;101979.02;;;18.66;32.81
63306;BME280;50735;52.060;1.248;2023-04-09T11:48:47;101967.77;;;18.20;32.73
63306;BME280;50735;52.060;1.248;2023-04-09T11:51:20;101975.47;;;18.48;32.96
63306;BME280;50735;52.060;1.248;2023-04-09T11:53:52;101983.05;;;19.30;32.69
63306;BME280;50735;52.060;1.248;2023-04-09T11:56:24;101985.64;;;19.11;32.00
63306;BME280;50735;52.060;1.248;2023-04-09T11:58:58;101974.25;;;19.26;32.17
63306;BME280;50735;52.060;1.248;2023-04-09T12:01:31;101969.33;;;19.11;32.14
63306;BME280;50735;52.060;1.248;2023-04-09T12:04:04;101966.37;;;19.10;32.20
63306;BME280;50735;52.060;1.248;2023-04-09T12:06:39;101963.09;;;19.56;32.18
63306;BME280;50735;52.060;1.248;2023-04-09T12:09:11;101963.12;;;19.52;32.28
63306;BME280;50735;52.060;1.248;2023-04-09T12:11:43;101964.72;;;19.26;32.10
63306;BME280;50735;52.060;1.248;2023-04-09T12:14:17;101961.14;;;19.47;32.09
63306;BME280;50735;52.060;1.248;2023-04-09T12:16:51;101958.44;;;19.44;31.55
63306;BME280;50735;52.060;1.248;2023-04-09T12:19:24;101949.57;;;19.15;32.31
63306;BME280;50735;52.060;1.248;2023-04-09T12:21:56;101958.17;;;18.51;32.73
63306;BME280;50735;52.060;1.248;2023-04-09T12:24:28;101965.17;;;18.74;32.32
63306;BME280;50735;52.060;1.248;2023-04-09T12:26:59;101956.67;;;18.93;31.49
63306;BME280;50735;52.060;1.248;2023-04-09T12:29:31;101952.45;;;18.31;32.80
63306;BME280;50735;52.060;1.248;2023-04-09T12:32:03;101951.25;;;18.39;31.78
63306;BME280;50735;52.060;1.248;2023-04-09T12:34:35;101947.07;;;17.77;32.16
63306;BME280;50735;52.060;1.248;2023-04-09T12:37:07;101938.71;;;17.72;33.08
63306;BME280;50735;52.060;1.248;2023-04-09T12:39:39;101935.65;;;17.56;33.96
63306;BME280;50735;52.060;1.248;2023-04-09T12:42:11;101931.12;;;17.58;33.35
63306;BME280;50735;52.060;1.248;2023-04-09T12:44:43;101926.36;;;17.31;34.20
63306;BME280;50735;52.060;1.248;2023-04-09T12:47:15;101923.45;;;16.87;34.53
63306;BME280;50735;52.060;1.248;2023-04-09T12:49:47;101921.31;;;16.92;34.18
63306;BME280;50735;52.060;1.248;2023-04-09T12:52:19;101915.48;;;16.99;34.09
63306;BME280;50735;52.060;1.248;2023-04-09T12:54:51;101916.87;;;17.45;33.68
63306;BME280;50735;52.060;1.248;2023-04-09T12:57:23;101917.68;;;17.73;33.29
63306;BME280;50735;52.060;1.248;2023-04-09T12:59:55;101916.33;;;18.35;32.74
63306;BME280;50735;52.060;1.248;2023-04-09T13:02:27;101911.53;;;17.42;33.48
63306;BME280;50735;52.060;1.248;2023-04-09T13:04:59;101913.16;;;17.05;33.69
63306;BME280;50735;52.060;1.248;2023-04-09T13:07:31;101908.35;;;17.24;33.55
63306;BME280;50735;52.060;1.248;2023-04-09T13:10:04;101906.24;;;17.50;33.64
63306;BME280;50735;52.060;1.248;2023-04-09T13:12:36;101908.88;;;17.70;33.74
63306;BME280;50735;52.060;1.248;2023-04-09T13:15:09;101907.65;;;17.66;33.29
63306;BME280;50735;52.060;1.248;2023-04-09T13:17:41;101902.85;;;17.18;34.33
63306;BME280;50735;52.060;1.248;2023-04-09T13:20:14;101899.72;;;16.82;35.35
63306;BME280;50735;52.060;1.248;2023-04-09T13:22:46;101898.91;;;16.97;34.70
63306;BME280;50735;52.060;1.248;2023-04-09T13:25:18;101894.25;;;16.22;35.03
63306;BME280;50735;52.060;1.248;2023-04-09T13:27:50;101895.97;;;16.74;35.87